• Join FlightAware (Why Join?)
  • Login
  • US Flag 
08:47AM EDT


 

Airport Tracker/Info


-or-


 

Live Flight TrackerFlight Track Log ✈ CSH9417 ✈ 09-Jun-2014 ✈ ZSSS / SHA - ZSLG / LYG

Flight Track Log - Related Links

Times and Time Zones

All times are in EDT time to prevent confusion due to time zone crossing. See the CSH9417 flight status page for this flight to view local times or setup timezone preferences in your user account.

Time Position Orientation Groundspeed Altitude Reporting Facility
EDT Latitude Longitude Course Direction KTS MPH feet Rate Location/Type
06:30AM 31.5620 121.0809 329° Northwest  Level Estimated
06:31AM 31.6227 121.0381 329° Northwest  Level Estimated
06:32AM 31.6833 120.9953 329° Northwest  Level Estimated
06:33AM 31.7439 120.9525 329° Northwest  Level Estimated
06:34AM 31.8045 120.9095 329° Northwest  Level Estimated
06:35AM 31.8651 120.8665 329° Northwest  Level Estimated
06:36AM 31.9256 120.8235 329° Northwest  Level Estimated
06:37AM 31.9862 120.7804 329° Northwest  Level Estimated
06:38AM 32.0467 120.7373 329° Northwest  Level Estimated
06:39AM 32.1073 120.6940 329° Northwest  Level Estimated
06:40AM 32.1678 120.6508 329° Northwest  Level Estimated
06:41AM 32.2283 120.6075 329° Northwest  Level Estimated
06:42AM 32.2888 120.5641 329° Northwest  Level Estimated
06:43AM 32.3492 120.5206 329° Northwest  Level Estimated
06:44AM 32.4097 120.4771 329° Northwest  Level Estimated
06:45AM 32.4701 120.4336 329° Northwest  Level Estimated
06:46AM 32.5305 120.3899 329° Northwest  Level Estimated
06:47AM 32.5910 120.3463 329° Northwest  Level Estimated
06:48AM 32.6513 120.3025 329° Northwest  Level Estimated
06:49AM 32.7117 120.2587 329° Northwest  Level Estimated
06:50AM 32.7721 120.2149 329° Northwest  Level Estimated
06:51AM 32.8324 120.1710 329° Northwest  Level Estimated
06:52AM 32.8927 120.1270 329° Northwest  Level Estimated
06:53AM 32.9531 120.0830 329° Northwest  Level Estimated
06:54AM 33.0134 120.0389 328° Northwest  Level Estimated
06:55AM 33.0737 119.9947 328° Northwest  Level Estimated
06:56AM 33.1339 119.9505 328° Northwest  Level Estimated
06:57AM 33.1942 119.9062 328° Northwest  Level Estimated
06:58AM 33.2544 119.8619 328° Northwest  Level Estimated
06:59AM 33.3146 119.8175 328° Northwest  Level Estimated
07:00AM 33.3748 119.7730 328° Northwest  Level Estimated
07:01AM 33.4350 119.7285 328° Northwest  Level Estimated
07:02AM 33.4952 119.6839 328° Northwest  Level Estimated
07:03AM 33.5554 119.6393 328° Northwest  Level Estimated
07:04AM 33.6155 119.5946 328° Northwest  Level Estimated
07:05AM 33.6756 119.5498 328° Northwest  Level Estimated
07:06AM 33.7357 119.5050 328° Northwest  Level Estimated
07:07AM 33.7958 119.4601 328° Northwest  Level Estimated
07:08AM 33.8559 119.4151 328° Northwest  Level Estimated
07:09AM 33.9139 119.3717 328° Northwest  Level Estimated
07:10AM 33.9719 119.3281 328° Northwest  Level Estimated
07:11AM 34.0298 119.2846 328° Northwest  Level Estimated
07:12AM 34.0878 119.2409 328° Northwest  Level Estimated
07:13AM 34.1457 119.1972 328° Northwest  Level Estimated
07:14AM 34.2036 119.1534 328° Northwest  Level Estimated
07:15AM 34.2615 119.1096 328° Northwest  Level Estimated
07:16AM 34.3194 119.0657 328° Northwest  Level Estimated
07:17AM 34.3773 119.0218 328° Northwest  Level Estimated
07:18AM 34.4351 118.9778 328° Northwest  Level Estimated
07:19AM 34.4929 118.9337 328° Northwest  Level Estimated
07:20AM 34.5508 118.8896 328° Northwest  Level Estimated
07:21AM 34.5717 118.8736 328° Northwest  Level Estimated
07:22AM 34.5717 118.8736 North  Level Estimated
07:23AM 34.5717 118.8736 North  Level Estimated
07:24AM 34.5717 118.8736 North  Level Estimated
07:25AM 34.5717 118.8736 North  Level Estimated
07:26AM 34.5717 118.8736 North  Level Estimated
07:27AM 34.5717 118.8736 North  Level Estimated
07:28AM 34.5717 118.8736 North  Level Estimated
07:29AM 34.5717 118.8736 North  Level Estimated